Terminal Aerodrome Forecast
Issued by NWS Twin Cities, MN

Home | Current Version | Previous Version | Text Only | Print | Product List | Glossary Off
Versions: 1 2 3 4 5 6 7 8 9 10 11 12 13 14 15 16 17 18 19 20 21 22 23 24 25 26 27 28 29

000
FTUS43 KMPX 291900 AAA
TAFMSP
TAF AMD
KMSP 291909Z 2919/3024 03011KT P6SM BKN025
     FM292100 04009KT P6SM SCT022 BKN030
     FM292300 05007KT P6SM SCT030
     FM300900 09007KT P6SM SCT012
     FM301600 10010KT P6SM SCT030 SCT250=

USA.gov is the U.S. government's official web portal to all federal, state and local government web resources and services.